Terminal Aerodrome Forecast
Issued by NWS

Home | Current Version | Previous Version | Graphics & Text | Print | Product List | Glossary On
Versions: 1 2 3 4 5 6 7 8 9 10 11 12 13 14
208
FTUS43 KBIS 252324
TAFDIK
TAF
KDIK 252324Z 2600/2624 34009KT P6SM OVC100
     FM260500 VRB05KT P6SM VCSH OVC060
     FM261700 31008KT P6SM BKN100=

USA.gov is the U.S. government's official web portal to all federal, state and local government web resources and services.